Time;durP1;ratioP1;P1;durP2;ratioP2;P2;SDS_P1;SDS_P2;PMS_P1;PMS_P2;Temp;Humidity;BMP_temperature;BMP_pressure;BME280_temperature;BME280_humidity;BME280_pressure;Samples;Min_cycle;Max_cycle;Signal;HPM_P1;HPM_P2
2022/12/30 00:01:33;;;;;;;10.33;2.67;;;;;;;;;;5030373;28;20174;-76
2022/12/30 00:03:58;;;;;;;6.23;2.33;;;;;;;;;;5025626;28;20178;-76
2022/12/30 00:06:25;;;;;;;7.27;2.63;;;;;;;;;;5028904;28;20265;-77
2022/12/30 00:08:51;;;;;;;4.97;1.87;;;;;;;;;;5029643;28;20221;-76
2022/12/30 00:11:22;;;;;;;12.70;2.07;;;;;;;;;;5030381;28;20181;-77
2022/12/30 00:33:24;;;;;;;5.80;1.80;;;;;;;;;;5026357;28;20285;-73
2022/12/30 00:35:50;;;;;;;7.83;1.50;;;;;;;;;;5036267;28;20249;-73
2022/12/30 00:38:15;;;;;;;10.87;1.50;;;;;;;;;;5037615;28;20277;-73
2022/12/30 00:43:07;;;;;;;6.40;1.47;;;;;;;;;;5035753;28;20182;-74
2022/12/30 00:43:25;;;;;;;9.70;1.70;;;;;;;;;;5037340;28;20667;-73
2022/12/30 00:45:50;;;;;;;9.77;2.77;;;;;;;;;;5037541;28;20174;-73
2022/12/30 00:56:27;;;;;;;9.63;1.70;;;;;;;;;;5037880;28;20185;-73
2022/12/30 00:58:53;;;;;;;10.00;2.23;;;;;;;;;;5037255;28;20182;-73
2022/12/30 01:01:18;;;;;;;13.13;2.30;;;;;;;;;;5036790;28;20185;-73
2022/12/30 01:03:43;;;;;;;13.70;4.63;;;;;;;;;;5033761;28;20181;-71
2022/12/30 01:06:09;;;;;;;6.70;1.93;;;;;;;;;;5037878;28;20189;-73
2022/12/30 01:08:34;;;;;;;7.17;1.43;;;;;;;;;;5036406;28;20580;-73
2022/12/30 01:11:04;;;;;;;4.60;1.57;;;;;;;;;;5037000;28;20198;-73
2022/12/30 01:13:29;;;;;;;9.83;1.77;;;;;;;;;;5037562;28;20599;-73
2022/12/30 01:15:54;;;;;;;8.03;1.77;;;;;;;;;;5037457;28;20178;-73
2022/12/30 01:18:19;;;;;;;7.60;2.67;;;;;;;;;;5035464;28;20218;-73
2022/12/30 01:20:44;;;;;;;7.53;2.00;;;;;;;;;;5035827;28;20177;-73
2022/12/30 01:23:10;;;;;;;8.37;2.40;;;;;;;;;;5037541;28;20607;-73
2022/12/30 01:25:38;;;;;;;6.47;2.07;;;;;;;;;;5036957;28;20572;-73
2022/12/30 01:28:03;;;;;;;7.50;2.30;;;;;;;;;;5036918;28;20252;-73
2022/12/30 01:30:28;;;;;;;5.87;1.60;;;;;;;;;;5035637;28;20210;-73
2022/12/30 01:32:53;;;;;;;11.03;2.53;;;;;;;;;;5035400;28;20309;-73
2022/12/30 01:35:18;;;;;;;6.63;2.57;;;;;;;;;;5037102;28;20219;-72
2022/12/30 01:37:43;;;;;;;5.53;1.63;;;;;;;;;;5036934;28;20190;-73
2022/12/30 01:40:09;;;;;;;7.37;1.70;;;;;;;;;;5035565;28;20178;-72
2022/12/30 01:42:39;;;;;;;6.33;2.33;;;;;;;;;;5036712;28;20178;-73
2022/12/30 01:45:21;;;;;;;8.23;2.07;;;;;;;;;;5035653;28;20181;-73
2022/12/30 01:47:53;;;;;;;9.73;2.33;;;;;;;;;;5030667;28;20220;-73
2022/12/30 01:50:18;;;;;;;9.03;2.20;;;;;;;;;;5033371;28;20178;-74
2022/12/30 01:52:47;;;;;;;13.80;2.10;;;;;;;;;;5029672;28;20187;-73
2022/12/30 01:55:16;;;;;;;4.40;1.63;;;;;;;;;;5033648;28;20534;-73
2022/12/30 01:57:42;;;;;;;11.37;2.23;;;;;;;;;;5033603;28;20202;-73
2022/12/30 02:00:08;;;;;;;13.07;2.27;;;;;;;;;;5032369;28;20602;-73
2022/12/30 02:02:33;;;;;;;9.40;2.37;;;;;;;;;;5031173;28;20205;-73
2022/12/30 02:05:00;;;;;;;10.20;2.97;;;;;;;;;;5033411;28;20648;-73
2022/12/30 02:07:32;;;;;;;6.73;1.90;;;;;;;;;;5033714;28;20178;-73
2022/12/30 02:09:58;;;;;;;12.13;2.73;;;;;;;;;;5033454;28;20206;-73
2022/12/30 02:12:23;;;;;;;10.17;2.60;;;;;;;;;;5032683;28;20667;-73
2022/12/30 02:14:48;;;;;;;9.97;2.70;;;;;;;;;;5033923;28;20178;-73
2022/12/30 02:17:30;;;;;;;8.53;2.57;;;;;;;;;;5031024;28;20664;-73
2022/12/30 02:20:04;;;;;;;7.10;2.43;;;;;;;;;;5030844;28;20178;-73
2022/12/30 02:22:35;;;;;;;7.00;2.00;;;;;;;;;;5031528;28;20182;-73
2022/12/30 02:25:10;;;;;;;8.57;2.00;;;;;;;;;;5031628;28;20599;-73
2022/12/30 02:27:35;;;;;;;10.93;2.90;;;;;;;;;;5030884;28;20198;-73
2022/12/30 02:30:06;;;;;;;8.77;2.60;;;;;;;;;;5032793;28;20694;-72
2022/12/30 02:32:49;;;;;;;8.00;2.97;;;;;;;;;;5031215;28;20175;-72
2022/12/30 02:35:23;;;;;;;6.57;3.13;;;;;;;;;;5031820;28;20442;-72
2022/12/30 02:37:54;;;;;;;11.13;2.97;;;;;;;;;;5032525;28;20450;-72
2022/12/30 02:40:22;;;;;;;14.93;3.00;;;;;;;;;;5032737;28;20196;-72
2022/12/30 02:45:49;;;;;;;12.83;3.63;;;;;;;;;;5029472;28;20252;-72
2022/12/30 02:48:17;;;;;;;16.07;3.03;;;;;;;;;;5030270;28;20630;-72
2022/12/30 02:53:29;;;;;;;10.07;3.00;;;;;;;;;;5030910;28;20185;-72
2022/12/30 02:55:54;;;;;;;12.70;2.87;;;;;;;;;;5032521;28;20174;-72
2022/12/30 02:58:20;;;;;;;12.17;3.13;;;;;;;;;;5032214;28;20243;-72
2022/12/30 03:04:02;;;;;;;8.97;2.47;;;;;;;;;;5031680;28;20363;-73
2022/12/30 03:06:46;;;;;;;10.20;4.13;;;;;;;;;;5030901;28;20189;-72
2022/12/30 03:09:18;;;;;;;12.97;3.83;;;;;;;;;;5032227;28;20225;-73
2022/12/30 03:11:50;;;;;;;10.27;3.20;;;;;;;;;;5022085;28;20179;-73
2022/12/30 03:14:34;;;;;;;6.43;2.40;;;;;;;;;;5031769;28;20189;-72
2022/12/30 03:17:10;;;;;;;16.33;2.67;;;;;;;;;;5032559;28;20376;-72
2022/12/30 03:19:42;;;;;;;12.73;2.63;;;;;;;;;;5032288;28;20670;-73
2022/12/30 03:27:03;;;;;;;6.40;1.80;;;;;;;;;;5031808;28;20190;-72
2022/12/30 03:27:40;;;;;;;12.03;2.37;;;;;;;;;;5028159;28;20711;-73
2022/12/30 03:30:06;;;;;;;9.23;2.67;;;;;;;;;;5032222;28;20213;-73
2022/12/30 03:32:32;;;;;;;8.87;2.20;;;;;;;;;;5030955;28;20170;-73
2022/12/30 03:34:57;;;;;;;17.97;3.83;;;;;;;;;;5031905;28;20174;-73
2022/12/30 03:37:24;;;;;;;8.07;2.87;;;;;;;;;;5032033;28;20667;-73
2022/12/30 03:39:55;;;;;;;16.10;3.87;;;;;;;;;;5031883;28;20186;-73
2022/12/30 03:42:20;;;;;;;8.97;2.43;;;;;;;;;;5028924;28;20659;-73
2022/12/30 03:44:46;;;;;;;6.63;2.17;;;;;;;;;;5031076;28;20178;-73
2022/12/30 03:47:12;;;;;;;11.27;2.57;;;;;;;;;;5030669;28;20178;-73
2022/12/30 03:49:40;;;;;;;14.83;2.50;;;;;;;;;;5032209;28;20234;-73
2022/12/30 03:52:06;;;;;;;8.03;2.50;;;;;;;;;;5029123;28;20189;-73
2022/12/30 03:54:31;;;;;;;4.87;2.07;;;;;;;;;;5031753;28;20174;-73
2022/12/30 03:56:56;;;;;;;12.97;2.90;;;;;;;;;;5031680;28;20632;-73
2022/12/30 03:59:21;;;;;;;10.17;2.33;;;;;;;;;;5031590;28;20213;-73
2022/12/30 04:01:47;;;;;;;12.00;3.03;;;;;;;;;;5030712;28;20249;-73
2022/12/30 04:04:12;;;;;;;8.20;2.80;;;;;;;;;;5031298;28;20530;-73
2022/12/30 04:06:37;;;;;;;8.40;2.20;;;;;;;;;;5030363;28;20185;-73
2022/12/30 04:09:02;;;;;;;7.37;2.17;;;;;;;;;;5030349;28;20198;-73
2022/12/30 04:11:27;;;;;;;11.83;3.20;;;;;;;;;;5030546;28;20182;-73
2022/12/30 04:13:53;;;;;;;6.67;1.70;;;;;;;;;;5031572;28;20170;-73
2022/12/30 04:16:18;;;;;;;10.00;3.47;;;;;;;;;;5031004;28;20715;-73
2022/12/30 04:18:43;;;;;;;11.47;4.30;;;;;;;;;;5029868;28;20798;-73
2022/12/30 04:21:08;;;;;;;8.93;2.23;;;;;;;;;;5029569;28;20189;-73
2022/12/30 04:23:34;;;;;;;10.03;2.60;;;;;;;;;;5031292;28;20185;-73
2022/12/30 04:25:59;;;;;;;10.53;3.77;;;;;;;;;;5031387;28;20581;-73
2022/12/30 04:28:24;;;;;;;14.33;2.73;;;;;;;;;;5031249;28;20198;-73
2022/12/30 04:30:50;;;;;;;7.47;2.20;;;;;;;;;;5029973;28;20559;-73
2022/12/30 04:33:15;;;;;;;7.37;2.17;;;;;;;;;;5031107;28;20174;-73
2022/12/30 04:35:40;;;;;;;8.90;2.70;;;;;;;;;;5030323;28;20182;-73
2022/12/30 04:38:05;;;;;;;11.07;2.97;;;;;;;;;;5030876;28;20759;-73
2022/12/30 04:40:30;;;;;;;10.90;2.53;;;;;;;;;;5031067;28;20175;-73
2022/12/30 04:42:56;;;;;;;10.70;3.03;;;;;;;;;;5030353;28;20174;-73
2022/12/30 04:45:21;;;;;;;10.30;3.47;;;;;;;;;;5031042;28;20178;-73
2022/12/30 04:47:46;;;;;;;8.50;1.90;;;;;;;;;;5030242;28;20577;-73
2022/12/30 04:50:11;;;;;;;16.37;4.00;;;;;;;;;;5030722;28;20205;-73
2022/12/30 04:52:36;;;;;;;10.87;2.70;;;;;;;;;;5030238;28;20187;-73
2022/12/30 04:55:02;;;;;;;12.63;2.47;;;;;;;;;;5030848;28;20548;-73
2022/12/30 04:57:27;;;;;;;15.80;5.93;;;;;;;;;;5030720;28;20213;-73
2022/12/30 04:59:52;;;;;;;17.63;3.27;;;;;;;;;;5029914;28;20190;-73
2022/12/30 05:02:18;;;;;;;11.90;2.23;;;;;;;;;;5026711;28;20182;-73
2022/12/30 05:04:43;;;;;;;9.27;2.30;;;;;;;;;;5030952;28;20694;-73
2022/12/30 05:07:08;;;;;;;9.00;2.70;;;;;;;;;;5030487;28;20722;-73
2022/12/30 05:09:33;;;;;;;12.00;2.20;;;;;;;;;;5030705;28;20206;-73
2022/12/30 05:11:59;;;;;;;13.07;2.80;;;;;;;;;;5029814;28;20167;-73
2022/12/30 05:14:24;;;;;;;6.40;2.37;;;;;;;;;;5030719;28;20648;-73
2022/12/30 05:16:49;;;;;;;14.50;3.77;;;;;;;;;;5028387;28;20198;-73
2022/12/30 05:19:14;;;;;;;11.83;3.47;;;;;;;;;;5029838;28;20297;-73
2022/12/30 05:21:39;;;;;;;9.80;2.10;;;;;;;;;;5032374;28;20178;-73
2022/12/30 05:26:49;;;;;;;9.40;2.47;;;;;;;;;;5032681;28;20194;-72
2022/12/30 05:29:14;;;;;;;7.87;2.53;;;;;;;;;;5034903;28;20206;-73
2022/12/30 05:31:39;;;;;;;8.77;2.93;;;;;;;;;;5032436;28;20247;-73
2022/12/30 05:34:04;;;;;;;11.57;2.27;;;;;;;;;;5033436;28;20636;-73
2022/12/30 05:36:29;;;;;;;7.53;2.70;;;;;;;;;;5033874;28;20202;-73
2022/12/30 05:38:55;;;;;;;11.20;2.93;;;;;;;;;;5033899;28;20241;-73
2022/12/30 05:41:20;;;;;;;15.87;2.23;;;;;;;;;;5033245;28;20182;-73
2022/12/30 05:43:45;;;;;;;12.30;2.60;;;;;;;;;;5033925;28;20205;-73
2022/12/30 05:46:10;;;;;;;11.87;3.20;;;;;;;;;;5033378;28;20182;-73
2022/12/30 05:48:36;;;;;;;9.10;2.70;;;;;;;;;;5034150;28;20218;-73
2022/12/30 05:51:01;;;;;;;11.70;2.83;;;;;;;;;;5033126;28;20174;-73
2022/12/30 05:53:26;;;;;;;14.53;3.30;;;;;;;;;;5033831;28;20178;-73
2022/12/30 05:55:52;;;;;;;8.50;2.33;;;;;;;;;;5033808;28;20198;-73
2022/12/30 05:58:18;;;;;;;9.33;2.63;;;;;;;;;;5033802;28;20202;-72
2022/12/30 06:00:43;;;;;;;8.80;2.93;;;;;;;;;;5029677;28;20192;-73
2022/12/30 06:03:08;;;;;;;17.53;4.17;;;;;;;;;;5032900;28;20252;-73
2022/12/30 06:05:33;;;;;;;9.10;2.13;;;;;;;;;;5032287;28;20206;-73
2022/12/30 06:07:58;;;;;;;20.20;3.67;;;;;;;;;;5034011;28;20663;-73
2022/12/30 06:10:24;;;;;;;7.60;2.03;;;;;;;;;;5033637;28;20190;-73
2022/12/30 06:12:49;;;;;;;6.93;3.00;;;;;;;;;;5031622;28;20171;-73
2022/12/30 06:15:14;;;;;;;8.63;2.50;;;;;;;;;;5032760;28;20185;-73
2022/12/30 06:17:39;;;;;;;7.47;2.87;;;;;;;;;;5042823;22;20213;-77
2022/12/30 06:20:05;;;;;;;11.13;2.20;;;;;;;;;;5033139;28;20585;-77
2022/12/30 06:22:30;;;;;;;8.27;3.07;;;;;;;;;;5032345;28;20182;-77
2022/12/30 06:24:55;;;;;;;12.47;3.47;;;;;;;;;;5033556;28;20599;-76
2022/12/30 06:27:20;;;;;;;8.13;2.90;;;;;;;;;;5032751;28;20298;-76
2022/12/30 06:29:47;;;;;;;7.27;2.53;;;;;;;;;;5032933;28;20695;-77
2022/12/30 06:32:12;;;;;;;11.40;2.53;;;;;;;;;;5028118;28;20206;-77
2022/12/30 06:34:37;;;;;;;10.73;2.77;;;;;;;;;;5033405;28;20605;-77
2022/12/30 06:37:02;;;;;;;13.00;3.30;;;;;;;;;;5032718;28;20253;-77
2022/12/30 06:39:27;;;;;;;11.17;2.83;;;;;;;;;;5031847;28;20198;-76
2022/12/30 06:41:53;;;;;;;9.87;2.63;;;;;;;;;;5030597;28;20180;-77
2022/12/30 06:44:18;;;;;;;7.30;2.70;;;;;;;;;;5031932;28;20204;-76
2022/12/30 06:46:43;;;;;;;14.77;3.73;;;;;;;;;;5030255;28;20589;-77
2022/12/30 06:49:08;;;;;;;7.50;2.73;;;;;;;;;;5031554;28;20206;-77
2022/12/30 06:51:34;;;;;;;15.40;2.17;;;;;;;;;;5031648;28;20186;-76
2022/12/30 06:53:59;;;;;;;12.03;2.67;;;;;;;;;;5031514;28;20178;-77
2022/12/30 06:56:24;;;;;;;7.80;2.03;;;;;;;;;;5032734;28;20187;-77
2022/12/30 06:58:49;;;;;;;6.30;2.50;;;;;;;;;;5032787;28;20236;-77
2022/12/30 07:01:14;;;;;;;8.43;2.20;;;;;;;;;;5027614;28;20182;-75
2022/12/30 07:03:40;;;;;;;7.17;2.50;;;;;;;;;;5030511;28;20608;-75
2022/12/30 07:06:05;;;;;;;12.03;2.93;;;;;;;;;;5033013;28;20178;-77
2022/12/30 07:08:30;;;;;;;7.47;2.47;;;;;;;;;;5031999;28;20285;-75
2022/12/30 07:10:55;;;;;;;9.33;2.43;;;;;;;;;;5031698;28;20232;-78
2022/12/30 07:13:21;;;;;;;8.33;2.27;;;;;;;;;;5031095;28;20178;-75
2022/12/30 07:15:47;;;;;;;9.43;2.73;;;;;;;;;;5031167;28;20257;-75
2022/12/30 07:18:12;;;;;;;9.57;2.63;;;;;;;;;;5030642;28;20248;-76
2022/12/30 07:20:38;;;;;;;17.47;2.50;;;;;;;;;;5032475;28;20202;-76
2022/12/30 07:23:03;;;;;;;14.47;2.63;;;;;;;;;;5030213;28;20178;-75
2022/12/30 07:25:28;;;;;;;12.87;2.97;;;;;;;;;;5032450;28;20714;-77
2022/12/30 07:27:57;;;;;;;7.80;2.73;;;;;;;;;;5030729;28;20231;-76
2022/12/30 07:30:22;;;;;;;9.90;3.73;;;;;;;;;;5032586;28;20210;-76
2022/12/30 07:32:48;;;;;;;9.63;2.77;;;;;;;;;;5028300;28;20597;-76
2022/12/30 07:35:13;;;;;;;4.80;2.37;;;;;;;;;;5032069;28;20524;-75
2022/12/30 07:37:38;;;;;;;12.60;3.03;;;;;;;;;;5031495;28;20198;-75
2022/12/30 07:40:04;;;;;;;11.43;2.80;;;;;;;;;;5030484;28;20239;-76
2022/12/30 07:42:29;;;;;;;11.30;3.87;;;;;;;;;;5030451;28;20185;-76
2022/12/30 07:44:54;;;;;;;14.17;3.23;;;;;;;;;;5029212;28;20293;-75
2022/12/30 07:47:19;;;;;;;12.80;3.70;;;;;;;;;;5030261;28;20182;-75
2022/12/30 07:49:44;;;;;;;8.30;2.60;;;;;;;;;;5031576;28;20333;-75
2022/12/30 07:52:10;;;;;;;8.77;2.80;;;;;;;;;;5029106;28;20177;-76
2022/12/30 07:54:35;;;;;;;5.73;2.80;;;;;;;;;;5031422;28;20174;-75
2022/12/30 07:57:00;;;;;;;7.13;3.50;;;;;;;;;;5031840;28;20183;-75
2022/12/30 07:59:25;;;;;;;9.10;2.70;;;;;;;;;;5031414;28;20198;-76
2022/12/30 08:01:50;;;;;;;10.80;3.50;;;;;;;;;;5029648;28;20252;-76
2022/12/30 08:04:16;;;;;;;12.10;3.73;;;;;;;;;;5031138;28;20601;-76
2022/12/30 08:06:41;;;;;;;7.00;3.30;;;;;;;;;;5030245;28;20182;-76
2022/12/30 08:09:07;;;;;;;12.40;3.30;;;;;;;;;;5030919;28;20683;-76
2022/12/30 08:11:33;;;;;;;9.83;2.93;;;;;;;;;;5029195;28;20182;-76
2022/12/30 08:13:58;;;;;;;10.30;3.80;;;;;;;;;;5029812;28;20228;-76
2022/12/30 08:16:23;;;;;;;15.33;5.40;;;;;;;;;;5031267;28;20201;-76
2022/12/30 08:18:48;;;;;;;12.50;3.77;;;;;;;;;;5030743;28;20255;-76
2022/12/30 08:21:15;;;;;;;12.13;4.67;;;;;;;;;;5029378;28;20213;-76
2022/12/30 08:23:42;;;;;;;7.87;4.33;;;;;;;;;;5029412;28;20181;-76
2022/12/30 08:26:18;;;;;;;7.50;3.17;;;;;;;;;;5031431;28;20831;-77
2022/12/30 08:28:43;;;;;;;9.43;3.87;;;;;;;;;;5030128;28;20194;-77
2022/12/30 08:31:11;;;;;;;10.53;4.57;;;;;;;;;;5028964;28;20189;-77
2022/12/30 08:33:36;;;;;;;6.03;2.80;;;;;;;;;;5029550;28;20178;-77
2022/12/30 08:36:05;;;;;;;12.23;3.23;;;;;;;;;;5029174;28;20189;-77
2022/12/30 08:38:32;;;;;;;12.67;4.07;;;;;;;;;;5029239;28;20256;-75
2022/12/30 08:41:05;;;;;;;5.57;2.27;;;;;;;;;;5029007;28;20182;-76
2022/12/30 08:43:30;;;;;;;11.33;2.90;;;;;;;;;;5028888;28;20206;-76
2022/12/30 08:45:56;;;;;;;6.00;2.40;;;;;;;;;;5029730;28;20604;-75
2022/12/30 08:48:21;;;;;;;8.17;2.60;;;;;;;;;;5029274;28;20210;-75
2022/12/30 08:50:47;;;;;;;7.20;3.10;;;;;;;;;;5024113;28;20269;-75
2022/12/30 08:53:12;;;;;;;6.53;2.43;;;;;;;;;;5029404;28;20180;-76
2022/12/30 08:55:37;;;;;;;9.30;2.73;;;;;;;;;;5031086;28;20652;-75
2022/12/30 08:58:02;;;;;;;6.00;2.97;;;;;;;;;;5035211;28;20216;-75
2022/12/30 09:00:28;;;;;;;6.97;3.07;;;;;;;;;;5034648;28;20174;-75
2022/12/30 09:02:53;;;;;;;7.67;2.60;;;;;;;;;;5031335;28;20241;-77
2022/12/30 09:05:18;;;;;;;7.47;2.53;;;;;;;;;;5034496;28;20171;-76
2022/12/30 09:07:43;;;;;;;7.87;3.07;;;;;;;;;;5031908;28;20209;-76
2022/12/30 09:10:11;;;;;;;5.37;2.20;;;;;;;;;;5034278;28;20198;-76
2022/12/30 09:12:36;;;;;;;6.13;3.27;;;;;;;;;;5032530;28;20174;-76
2022/12/30 09:15:02;;;;;;;8.63;2.43;;;;;;;;;;5034055;28;20173;-76
2022/12/30 09:17:27;;;;;;;6.27;2.30;;;;;;;;;;5032964;28;20170;-76
2022/12/30 09:19:52;;;;;;;5.97;2.27;;;;;;;;;;5031605;28;20201;-76
2022/12/30 09:22:17;;;;;;;6.27;1.97;;;;;;;;;;5031415;28;20174;-76
2022/12/30 09:24:42;;;;;;;10.47;1.90;;;;;;;;;;5031380;28;20175;-76
2022/12/30 09:27:07;;;;;;;5.37;1.93;;;;;;;;;;5032780;28;20225;-75
2022/12/30 09:29:33;;;;;;;8.03;1.70;;;;;;;;;;5032718;28;20241;-75
2022/12/30 09:31:58;;;;;;;7.03;3.03;;;;;;;;;;5032608;28;20173;-76
2022/12/30 09:34:23;;;;;;;12.00;2.60;;;;;;;;;;5032633;28;20170;-75
2022/12/30 09:36:48;;;;;;;5.13;2.30;;;;;;;;;;5032585;28;20200;-77
2022/12/30 09:39:13;;;;;;;4.93;1.83;;;;;;;;;;5032536;28;20296;-76
2022/12/30 09:44:50;;;;;;;6.23;1.90;;;;;;;;;;5031426;28;20265;-77
2022/12/30 09:47:33;;;;;;;3.97;1.53;;;;;;;;;;5031917;28;20189;-77
2022/12/30 09:50:05;;;;;;;7.00;2.23;;;;;;;;;;5032647;28;20206;-77
2022/12/30 09:52:37;;;;;;;4.43;2.10;;;;;;;;;;5028889;28;20174;-77
2022/12/30 09:55:05;;;;;;;4.00;1.37;;;;;;;;;;5031732;28;20238;-77
2022/12/30 09:57:33;;;;;;;4.83;1.80;;;;;;;;;;5031778;28;20559;-76
2022/12/30 10:00:07;;;;;;;5.77;1.80;;;;;;;;;;5032617;28;20708;-77
2022/12/30 10:02:39;;;;;;;6.27;2.00;;;;;;;;;;5029462;28;20186;-77
2022/12/30 10:05:09;;;;;;;3.73;1.97;;;;;;;;;;5027323;28;20252;-77
2022/12/30 10:07:51;;;;;;;4.40;1.83;;;;;;;;;;5029834;28;20261;-75
2022/12/30 10:10:23;;;;;;;3.30;1.90;;;;;;;;;;5028792;28;20209;-75
2022/12/30 10:12:52;;;;;;;5.30;1.97;;;;;;;;;;5027006;28;20354;-77
2022/12/30 10:15:20;;;;;;;3.77;1.60;;;;;;;;;;5032284;28;20178;-77
2022/12/30 10:17:48;;;;;;;5.00;1.55;;;;;;;;;;4993167;28;1087342;-75
2022/12/30 10:20:33;;;;;;;4.70;1.60;;;;;;;;;;5031246;28;20638;-77
2022/12/30 10:23:03;;;;;;;5.80;1.13;;;;;;;;;;5028762;28;20217;-75
2022/12/30 10:25:34;;;;;;;6.37;1.73;;;;;;;;;;5033092;28;20193;-77
2022/12/30 10:28:00;;;;;;;4.37;1.60;;;;;;;;;;5033047;28;20576;-76
2022/12/30 10:30:46;;;;;;;4.63;1.60;;;;;;;;;;5032774;28;20275;-75
2022/12/30 10:33:19;;;;;;;4.07;1.23;;;;;;;;;;5033755;28;20182;-75
2022/12/30 10:35:45;;;;;;;3.37;1.73;;;;;;;;;;5027184;28;20260;-77
2022/12/30 10:38:15;;;;;;;4.23;2.17;;;;;;;;;;5033282;28;20277;-77
2022/12/30 10:41:06;;;;;;;4.23;1.30;;;;;;;;;;5032608;28;20205;-78
2022/12/30 10:43:55;;;;;;;4.77;1.43;;;;;;;;;;5033188;28;20183;-77
2022/12/30 10:46:29;;;;;;;12.93;6.40;;;;;;;;;;5020505;28;20274;-77
2022/12/30 10:49:20;;;;;;;5.83;3.37;;;;;;;;;;5032995;28;20220;-76
2022/12/30 10:51:46;;;;;;;3.70;1.77;;;;;;;;;;5014454;28;20667;-76
2022/12/30 10:54:11;;;;;;;8.20;1.87;;;;;;;;;;5026618;28;20174;-76
2022/12/30 10:56:36;;;;;;;3.97;1.80;;;;;;;;;;5030927;28;20537;-76
2022/12/30 10:59:25;;;;;;;5.63;2.53;;;;;;;;;;5031663;28;20241;-76
2022/12/30 11:01:55;;;;;;;7.50;1.80;;;;;;;;;;5023619;28;20265;-76
2022/12/30 11:04:37;;;;;;;4.27;1.60;;;;;;;;;;5032239;28;20183;-77
2022/12/30 11:07:04;;;;;;;5.17;1.83;;;;;;;;;;5030424;28;20182;-77
2022/12/30 11:09:29;;;;;;;3.23;1.60;;;;;;;;;;5030075;28;20336;-77
2022/12/30 11:14:43;;;;;;;3.80;1.20;;;;;;;;;;5024676;28;20650;-77
2022/12/30 11:17:28;;;;;;;4.43;1.53;;;;;;;;;;5032164;28;20668;-76
2022/12/30 11:19:55;;;;;;;6.97;2.90;;;;;;;;;;5028838;28;20209;-76
2022/12/30 11:22:21;;;;;;;3.63;1.37;;;;;;;;;;5029447;28;20271;-76
2022/12/30 11:25:05;;;;;;;7.67;2.00;;;;;;;;;;5031297;28;20189;-77
2022/12/30 11:27:35;;;;;;;4.53;1.33;;;;;;;;;;5031698;28;20271;-76
2022/12/30 11:30:00;;;;;;;3.93;1.00;;;;;;;;;;5031801;28;20213;-77
2022/12/30 11:32:25;;;;;;;2.57;1.00;;;;;;;;;;5030818;28;20557;-77
2022/12/30 11:34:50;;;;;;;4.53;1.17;;;;;;;;;;5031780;28;20186;-76
2022/12/30 11:37:30;;;;;;;13.20;3.33;;;;;;;;;;5034460;28;20197;-76
2022/12/30 11:39:55;;;;;;;8.37;1.57;;;;;;;;;;5025326;28;20178;-77
2022/12/30 11:42:28;;;;;;;4.07;1.23;;;;;;;;;;5030693;28;20614;-77
2022/12/30 11:45:11;;;;;;;3.23;1.13;;;;;;;;;;5031546;28;20178;-76
2022/12/30 11:47:42;;;;;;;6.97;1.30;;;;;;;;;;5030102;28;20205;-76
2022/12/30 11:50:14;;;;;;;7.07;2.33;;;;;;;;;;5030869;28;20202;-76
2022/12/30 11:52:39;;;;;;;4.00;1.10;;;;;;;;;;5030581;28;20267;-76
2022/12/30 11:55:04;;;;;;;4.30;1.60;;;;;;;;;;5031238;28;20290;-76
2022/12/30 11:57:30;;;;;;;5.37;1.30;;;;;;;;;;5030466;28;20697;-76
2022/12/30 12:00:10;;;;;;;5.63;1.50;;;;;;;;;;5031220;28;20182;-76
2022/12/30 12:02:37;;;;;;;3.93;1.67;;;;;;;;;;5028410;28;20639;-76
2022/12/30 12:05:23;;;;;;;6.50;2.13;;;;;;;;;;5027958;28;20200;-76
2022/12/30 12:07:49;;;;;;;4.53;2.47;;;;;;;;;;5022605;28;20210;-76
2022/12/30 12:10:15;;;;;;;9.47;2.00;;;;;;;;;;5029908;28;20218;-76
2022/12/30 12:12:44;;;;;;;8.77;1.90;;;;;;;;;;5028900;28;20659;-77
2022/12/30 12:15:12;;;;;;;6.57;2.10;;;;;;;;;;5029800;28;20698;-77
2022/12/30 12:17:47;;;;;;;4.93;2.50;;;;;;;;;;5030558;28;20274;-76
2022/12/30 12:20:44;;;;;;;7.80;4.13;;;;;;;;;;5041004;22;20676;-72
2022/12/30 12:23:31;;;;;;;5.10;2.67;;;;;;;;;;5009313;28;20189;-72
2022/12/30 12:26:01;;;;;;;7.77;1.80;;;;;;;;;;5024954;28;20175;-73
2022/12/30 12:28:26;;;;;;;2.57;1.40;;;;;;;;;;5027442;28;20286;-72
2022/12/30 12:31:09;;;;;;;10.47;2.13;;;;;;;;;;5009320;28;20253;-73
2022/12/30 12:33:44;;;;;;;6.63;1.53;;;;;;;;;;5010611;28;20175;-73
2022/12/30 12:36:14;;;;;;;5.67;1.90;;;;;;;;;;5009861;28;20179;-72
2022/12/30 12:38:45;;;;;;;7.07;1.67;;;;;;;;;;5011058;28;20198;-73
2022/12/30 12:41:24;;;;;;;7.27;3.17;;;;;;;;;;5009920;28;20175;-73
2022/12/30 12:43:57;;;;;;;4.63;1.70;;;;;;;;;;5005580;28;20202;-73
2022/12/30 12:46:34;;;;;;;6.63;1.37;;;;;;;;;;5008962;28;20547;-73
2022/12/30 12:49:22;;;;;;;8.50;2.40;;;;;;;;;;5011014;28;20191;-73
2022/12/30 12:52:06;;;;;;;3.07;1.10;;;;;;;;;;4999278;28;20182;-73
2022/12/30 12:54:32;;;;;;;4.77;1.13;;;;;;;;;;5008950;28;20226;-72
2022/12/30 12:57:06;;;;;;;9.70;1.30;;;;;;;;;;5011134;28;20178;-73
2022/12/30 12:59:50;;;;;;;7.07;1.37;;;;;;;;;;5009249;28;20303;-73
2022/12/30 13:02:24;;;;;;;4.00;1.43;;;;;;;;;;5008653;28;20183;-72
2022/12/30 13:05:08;;;;;;;5.77;1.47;;;;;;;;;;5010934;28;20482;-72
2022/12/30 13:07:36;;;;;;;6.90;2.40;;;;;;;;;;5010911;28;20170;-72
2022/12/30 13:10:13;;;;;;;2.57;1.30;;;;;;;;;;5011156;28;20217;-72
2022/12/30 13:12:44;;;;;;;4.97;1.37;;;;;;;;;;5008790;28;20587;-72
2022/12/30 13:15:10;;;;;;;2.37;1.00;;;;;;;;;;5010324;28;20726;-73
2022/12/30 13:17:39;;;;;;;2.50;1.40;;;;;;;;;;5013187;28;20257;-73
2022/12/30 13:20:13;;;;;;;3.70;1.37;;;;;;;;;;5011123;28;20223;-73
2022/12/30 13:22:38;;;;;;;4.23;1.20;;;;;;;;;;5010558;28;20262;-73
2022/12/30 13:25:15;;;;;;;3.77;1.43;;;;;;;;;;5011733;28;20245;-73
2022/12/30 13:27:40;;;;;;;6.43;0.90;;;;;;;;;;5008046;28;20649;-73
2022/12/30 13:30:06;;;;;;;4.27;1.40;;;;;;;;;;5007732;28;20214;-73
2022/12/30 13:32:47;;;;;;;4.07;1.30;;;;;;;;;;5008555;28;20270;-73
2022/12/30 13:35:27;;;;;;;5.70;1.50;;;;;;;;;;5006172;28;20184;-73
2022/12/30 13:37:55;;;;;;;3.40;1.10;;;;;;;;;;5010062;28;20179;-72
2022/12/30 13:40:23;;;;;;;3.30;1.00;;;;;;;;;;5005875;28;20214;-73
2022/12/30 13:43:07;;;;;;;4.33;1.07;;;;;;;;;;5011694;28;20190;-72
2022/12/30 13:45:35;;;;;;;3.87;0.90;;;;;;;;;;5011824;28;20194;-72
2022/12/30 13:48:09;;;;;;;2.27;1.23;;;;;;;;;;5014626;28;20179;-72
2022/12/30 13:50:34;;;;;;;2.63;1.63;;;;;;;;;;5014311;28;20249;-74
2022/12/30 13:53:01;;;;;;;4.83;1.30;;;;;;;;;;5012140;28;20650;-73
2022/12/30 13:55:26;;;;;;;2.50;1.30;;;;;;;;;;5014370;28;20751;-73
2022/12/30 13:58:05;;;;;;;6.97;1.50;;;;;;;;;;5013015;28;20174;-72
2022/12/30 14:00:38;;;;;;;5.80;1.07;;;;;;;;;;5012257;28;20820;-73
2022/12/30 14:03:23;;;;;;;5.87;1.10;;;;;;;;;;5013897;28;20663;-72
2022/12/30 14:05:49;;;;;;;6.77;1.23;;;;;;;;;;5013248;28;20191;-72
2022/12/30 14:08:17;;;;;;;5.87;1.20;;;;;;;;;;5013634;28;20237;-73
2022/12/30 14:10:43;;;;;;;2.77;1.10;;;;;;;;;;5012863;28;20185;-73
2022/12/30 14:13:11;;;;;;;1.70;0.73;;;;;;;;;;5013777;28;20186;-72
2022/12/30 14:15:36;;;;;;;3.00;1.10;;;;;;;;;;5013847;28;20604;-72
2022/12/30 14:18:08;;;;;;;2.90;1.60;;;;;;;;;;5013930;28;20183;-72
2022/12/30 14:20:35;;;;;;;3.37;1.00;;;;;;;;;;5011615;28;20226;-73
2022/12/30 14:23:01;;;;;;;3.23;1.10;;;;;;;;;;5013221;28;20528;-73
2022/12/30 14:25:33;;;;;;;1.47;1.00;;;;;;;;;;5013605;28;20503;-72
2022/12/30 14:27:58;;;;;;;4.50;0.70;;;;;;;;;;5014076;28;20175;-72
2022/12/30 14:30:23;;;;;;;4.67;0.90;;;;;;;;;;5013437;28;20210;-73
2022/12/30 14:32:56;;;;;;;2.17;1.10;;;;;;;;;;5013228;28;20250;-73
2022/12/30 14:35:21;;;;;;;2.00;1.20;;;;;;;;;;5014132;28;20327;-74
2022/12/30 14:37:46;;;;;;;1.93;0.87;;;;;;;;;;5014740;28;20210;-74
2022/12/30 14:40:31;;;;;;;1.60;0.87;;;;;;;;;;5015146;28;20256;-73
2022/12/30 14:42:57;;;;;;;2.77;0.97;;;;;;;;;;5012023;28;20281;-72
2022/12/30 14:45:24;;;;;;;1.67;1.33;;;;;;;;;;5013673;28;20195;-72
2022/12/30 14:47:49;;;;;;;4.07;1.20;;;;;;;;;;5012960;28;20175;-74
2022/12/30 14:50:16;;;;;;;1.53;0.80;;;;;;;;;;5011870;28;20207;-73
2022/12/30 14:52:47;;;;;;;2.50;1.17;;;;;;;;;;5011536;28;20302;-73
2022/12/30 14:55:19;;;;;;;1.43;1.00;;;;;;;;;;5013203;28;20522;-74
2022/12/30 14:57:45;;;;;;;2.33;0.90;;;;;;;;;;5013323;28;20176;-74
2022/12/30 15:00:11;;;;;;;1.50;1.10;;;;;;;;;;5011714;28;20665;-72
2022/12/30 15:02:45;;;;;;;2.20;0.90;;;;;;;;;;5012011;28;20182;-72
2022/12/30 15:05:10;;;;;;;1.70;1.10;;;;;;;;;;5010563;28;20256;-73
2022/12/30 15:07:36;;;;;;;1.10;1.00;;;;;;;;;;5013475;28;20669;-72
2022/12/30 15:10:03;;;;;;;1.40;1.20;;;;;;;;;;5013284;28;20588;-72
2022/12/30 15:12:29;;;;;;;3.20;1.70;;;;;;;;;;5010795;28;20643;-73
2022/12/30 15:14:55;;;;;;;2.33;1.47;;;;;;;;;;5012306;28;20171;-73
2022/12/30 15:17:20;;;;;;;2.63;1.50;;;;;;;;;;5014837;28;20179;-73
2022/12/30 15:19:46;;;;;;;2.97;2.27;;;;;;;;;;5011502;28;20217;-73
2022/12/30 15:22:12;;;;;;;1.90;1.50;;;;;;;;;;5010715;28;20175;-73
2022/12/30 15:24:43;;;;;;;2.53;1.37;;;;;;;;;;5012469;28;20229;-73
2022/12/30 15:27:29;;;;;;;3.83;2.00;;;;;;;;;;5012602;28;20186;-73
2022/12/30 15:29:56;;;;;;;2.07;1.80;;;;;;;;;;5010390;28;20206;-73
2022/12/30 15:32:32;;;;;;;2.03;1.80;;;;;;;;;;5009490;28;20727;-74
2022/12/30 15:35:06;;;;;;;3.23;1.73;;;;;;;;;;5012642;28;20556;-74